ヌメア の空港の天気 - METARとTAF

ヌメア国際空港 ( NWWW / NOU ) - ニューカレドニア ヌメア
飛行場実況気象(Metar)
観測時間11/25 04:00 NCT (11/24 17:00 UTC)
風向・風速不定 2m/s
視程10km以上
天気現象
なし
気温21℃
湿度78%
気圧1009hPa
METARNWWW 241700Z AUTO VRB03KT CAVOK 21/17 Q1009 NOSIG
過去の天気等 Google飛行場航空写真 Wunderground天気予報

過去48時間のMETAR

飛行場予報(TAF)
データがありません